sensor_id;sensor_type;location;lat;lon;timestamp;pressure;altitude;pressure_sealevel;temperature;humidity
37778;BME280;23615;51.506;7.678;2023-03-03T00:01:09;100738.28;;;1.74;95.86
37778;BME280;23615;51.506;7.678;2023-03-03T00:03:34;100738.84;;;1.77;95.70
37778;BME280;23615;51.506;7.678;2023-03-03T00:06:01;100745.47;;;1.81;95.40
37778;BME280;23615;51.506;7.678;2023-03-03T00:08:27;100745.47;;;1.81;95.12
37778;BME280;23615;51.506;7.678;2023-03-03T00:10:52;100742.06;;;1.71;95.58
37778;BME280;23615;51.506;7.678;2023-03-03T00:13:21;100747.19;;;1.73;95.78
37778;BME280;23615;51.506;7.678;2023-03-03T00:15:47;100740.56;;;1.69;95.90
37778;BME280;23615;51.506;7.678;2023-03-03T00:18:21;100742.06;;;1.71;96.37
37778;BME280;23615;51.506;7.678;2023-03-03T00:20:52;100741.94;;;1.73;96.33
37778;BME280;23615;51.506;7.678;2023-03-03T00:23:34;100736.97;;;1.70;96.35
37778;BME280;23615;51.506;7.678;2023-03-03T00:26:00;100738.47;;;1.72;96.74
37778;BME280;23615;51.506;7.678;2023-03-03T00:28:46;100740.94;;;1.74;96.45
37778;BME280;23615;51.506;7.678;2023-03-03T00:31:18;100737.63;;;1.72;96.41
37778;BME280;23615;51.506;7.678;2023-03-03T00:33:50;100736.06;;;1.79;96.44
37778;BME280;23615;51.506;7.678;2023-03-03T00:36:28;100733.28;;;1.80;96.02
37778;BME280;23615;51.506;7.678;2023-03-03T00:38:59;100738.91;;;1.85;95.38
37778;BME280;23615;51.506;7.678;2023-03-03T00:41:35;100743.81;;;1.80;95.74
37778;BME280;23615;51.506;7.678;2023-03-03T00:44:29;100752.13;;;1.76;96.30
37778;BME280;23615;51.506;7.678;2023-03-03T00:46:55;100747.00;;;1.74;96.48
37778;BME280;23615;51.506;7.678;2023-03-03T00:49:25;100742.28;;;1.78;96.51
37778;BME280;23615;51.506;7.678;2023-03-03T00:51:52;100747.28;;;1.81;96.72
37778;BME280;23615;51.506;7.678;2023-03-03T00:54:17;100741.94;;;1.73;96.17
37778;BME280;23615;51.506;7.678;2023-03-03T00:56:43;100734.75;;;1.65;96.38
37778;BME280;23615;51.506;7.678;2023-03-03T00:59:08;100736.34;;;1.58;96.83
37778;BME280;23615;51.506;7.678;2023-03-03T01:01:33;100749.63;;;1.57;96.53
37778;BME280;23615;51.506;7.678;2023-03-03T01:03:59;100747.69;;;1.59;96.65
37778;BME280;23615;51.506;7.678;2023-03-03T01:06:24;100735.91;;;1.63;97.10
37778;BME280;23615;51.506;7.678;2023-03-03T01:08:49;100744.91;;;1.60;96.71
37778;BME280;23615;51.506;7.678;2023-03-03T01:11:19;100746.84;;;1.58;96.81
37778;BME280;23615;51.506;7.678;2023-03-03T01:13:47;100741.31;;;1.61;96.46
37778;BME280;23615;51.506;7.678;2023-03-03T01:16:14;100741.16;;;1.63;96.61
37778;BME280;23615;51.506;7.678;2023-03-03T01:18:40;100744.63;;;1.63;96.65
37778;BME280;23615;51.506;7.678;2023-03-03T01:21:06;100745.88;;;1.59;97.00
37778;BME280;23615;51.506;7.678;2023-03-03T01:23:32;100742.41;;;1.59;97.05
37778;BME280;23615;51.506;7.678;2023-03-03T01:25:58;100740.00;;;1.65;96.91
37778;BME280;23615;51.506;7.678;2023-03-03T01:28:23;100731.75;;;1.60;96.86
37778;BME280;23615;51.506;7.678;2023-03-03T01:30:48;100739.03;;;1.66;96.78
37778;BME280;23615;51.506;7.678;2023-03-03T01:33:15;100742.66;;;1.65;96.69
37778;BME280;23615;51.506;7.678;2023-03-03T01:35:44;100742.50;;;1.67;97.03
37778;BME280;23615;51.506;7.678;2023-03-03T01:38:10;100736.72;;;1.63;97.10
37778;BME280;23615;51.506;7.678;2023-03-03T01:40:35;100731.69;;;1.70;96.88
37778;BME280;23615;51.506;7.678;2023-03-03T01:43:01;100741.09;;;1.72;96.62
37778;BME280;23615;51.506;7.678;2023-03-03T01:46:19;100736.13;;;1.69;96.27
37778;BME280;23615;51.506;7.678;2023-03-03T01:48:37;100740.00;;;1.65;96.82
37778;BME280;23615;51.506;7.678;2023-03-03T01:51:09;100737.94;;;1.69;96.76
37778;BME280;23615;51.506;7.678;2023-03-03T01:53:44;100748.31;;;1.70;96.77
37778;BME280;23615;51.506;7.678;2023-03-03T01:56:11;100746.94;;;1.66;96.63
37778;BME280;23615;51.506;7.678;2023-03-03T01:58:39;100742.56;;;1.57;96.57
37778;BME280;23615;51.506;7.678;2023-03-03T02:01:08;100741.50;;;1.50;96.92
37778;BME280;23615;51.506;7.678;2023-03-03T02:03:35;100733.00;;;1.56;96.87
37778;BME280;23615;51.506;7.678;2023-03-03T02:06:07;100719.88;;;1.56;96.86
37778;BME280;23615;51.506;7.678;2023-03-03T02:08:46;100723.31;;;1.57;96.90
37778;BME280;23615;51.506;7.678;2023-03-03T02:11:15;100722.50;;;1.56;96.98
37778;BME280;23615;51.506;7.678;2023-03-03T02:13:40;100711.63;;;1.69;96.87
37778;BME280;23615;51.506;7.678;2023-03-03T02:16:06;100718.63;;;1.78;96.42
37778;BME280;23615;51.506;7.678;2023-03-03T02:18:32;100729.06;;;1.70;96.49
37778;BME280;23615;51.506;7.678;2023-03-03T02:21:05;100730.09;;;1.59;96.64
37778;BME280;23615;51.506;7.678;2023-03-03T02:24:00;100738.81;;;1.60;96.61
37778;BME280;23615;51.506;7.678;2023-03-03T02:26:29;100731.81;;;1.50;96.64
37778;BME280;23615;51.506;7.678;2023-03-03T02:28:56;100744.50;;;1.55;96.93
37778;BME280;23615;51.506;7.678;2023-03-03T02:31:24;100742.88;;;1.54;96.94
37778;BME280;23615;51.506;7.678;2023-03-03T02:33:51;100744.69;;;1.54;96.85
37778;BME280;23615;51.506;7.678;2023-03-03T02:36:23;100736.25;;;1.50;96.50
37778;BME280;23615;51.506;7.678;2023-03-03T02:38:50;100741.97;;;1.45;97.26
37778;BME280;23615;51.506;7.678;2023-03-03T02:43:56;100737.03;;;1.60;96.68
37778;BME280;23615;51.506;7.678;2023-03-03T02:46:23;100737.16;;;1.59;96.77
37778;BME280;23615;51.506;7.678;2023-03-03T02:48:48;100742.47;;;1.49;96.65
37778;BME280;23615;51.506;7.678;2023-03-03T02:51:13;100745.25;;;1.47;97.01
37778;BME280;23615;51.506;7.678;2023-03-03T02:53:39;100737.34;;;1.47;97.42
37778;BME280;23615;51.506;7.678;2023-03-03T02:56:05;100735.97;;;1.53;97.48
37778;BME280;23615;51.506;7.678;2023-03-03T02:58:31;100735.03;;;1.44;96.77
37778;BME280;23615;51.506;7.678;2023-03-03T03:00:56;100740.00;;;1.47;96.84
37778;BME280;23615;51.506;7.678;2023-03-03T03:03:21;100728.56;;;1.39;97.24
37778;BME280;23615;51.506;7.678;2023-03-03T03:05:47;100740.03;;;1.38;97.05
37778;BME280;23615;51.506;7.678;2023-03-03T03:08:12;100741.00;;;1.37;97.30
37778;BME280;23615;51.506;7.678;2023-03-03T03:10:37;100739.38;;;1.36;97.21
37778;BME280;23615;51.506;7.678;2023-03-03T03:13:03;100736.44;;;1.39;97.62
37778;BME280;23615;51.506;7.678;2023-03-03T03:15:28;100738.09;;;1.40;97.24
37778;BME280;23615;51.506;7.678;2023-03-03T03:17:53;100732.00;;;1.39;97.69
37778;BME280;23615;51.506;7.678;2023-03-03T03:20:18;100740.59;;;1.41;97.45
37778;BME280;23615;51.506;7.678;2023-03-03T03:22:44;100743.91;;;1.43;97.71
37778;BME280;23615;51.506;7.678;2023-03-03T03:25:09;100741.84;;;1.37;97.28
37778;BME280;23615;51.506;7.678;2023-03-03T03:27:35;100739.06;;;1.39;97.63
37778;BME280;23615;51.506;7.678;2023-03-03T03:30:00;100743.50;;;1.38;97.34
37778;BME280;23615;51.506;7.678;2023-03-03T03:32:25;100745.47;;;1.36;98.03
37778;BME280;23615;51.506;7.678;2023-03-03T03:34:51;100749.91;;;1.36;97.81
37778;BME280;23615;51.506;7.678;2023-03-03T03:37:16;100753.19;;;1.38;97.70
37778;BME280;23615;51.506;7.678;2023-03-03T03:39:41;100754.00;;;1.38;97.36
37778;BME280;23615;51.506;7.678;2023-03-03T03:42:07;100756.63;;;1.38;97.71
37778;BME280;23615;51.506;7.678;2023-03-03T03:44:32;100760.78;;;1.41;97.89
37778;BME280;23615;51.506;7.678;2023-03-03T03:46:57;100762.22;;;1.35;97.86
37778;BME280;23615;51.506;7.678;2023-03-03T03:49:22;100764.84;;;1.35;97.75
37778;BME280;23615;51.506;7.678;2023-03-03T03:51:48;100755.28;;;1.34;97.82
37778;BME280;23615;51.506;7.678;2023-03-03T03:54:13;100747.41;;;1.34;97.95
37778;BME280;23615;51.506;7.678;2023-03-03T03:56:38;100760.41;;;1.36;97.88
37778;BME280;23615;51.506;7.678;2023-03-03T03:59:05;100761.75;;;1.40;97.87
37778;BME280;23615;51.506;7.678;2023-03-03T04:01:31;100767.97;;;1.39;97.69
37778;BME280;23615;51.506;7.678;2023-03-03T04:03:56;100760.94;;;1.39;98.18
37778;BME280;23615;51.506;7.678;2023-03-03T04:06:21;100760.69;;;1.33;98.08
37778;BME280;23615;51.506;7.678;2023-03-03T04:08:46;100764.66;;;1.37;98.07
37778;BME280;23615;51.506;7.678;2023-03-03T04:11:12;100758.16;;;1.41;97.58
37778;BME280;23615;51.506;7.678;2023-03-03T04:13:37;100764.38;;;1.40;97.66
37778;BME280;23615;51.506;7.678;2023-03-03T04:16:03;100761.06;;;1.38;98.10
37778;BME280;23615;51.506;7.678;2023-03-03T04:18:28;100759.97;;;1.40;97.81
37778;BME280;23615;51.506;7.678;2023-03-03T04:20:53;100764.47;;;1.48;97.26
37778;BME280;23615;51.506;7.678;2023-03-03T04:23:20;100763.13;;;1.44;97.41
37778;BME280;23615;51.506;7.678;2023-03-03T04:25:46;100760.94;;;1.39;97.70
37778;BME280;23615;51.506;7.678;2023-03-03T04:28:12;100772.97;;;1.42;97.86
37778;BME280;23615;51.506;7.678;2023-03-03T04:30:37;100769.78;;;1.38;97.65
37778;BME280;23615;51.506;7.678;2023-03-03T04:33:03;100767.72;;;1.42;97.88
37778;BME280;23615;51.506;7.678;2023-03-03T04:35:28;100775.19;;;1.37;98.00
37778;BME280;23615;51.506;7.678;2023-03-03T04:37:53;100766.63;;;1.35;98.15
37778;BME280;23615;51.506;7.678;2023-03-03T04:40:19;100777.66;;;1.38;97.89
37778;BME280;23615;51.506;7.678;2023-03-03T04:42:44;100776.28;;;1.44;98.06
37778;BME280;23615;51.506;7.678;2023-03-03T04:45:10;100774.31;;;1.46;98.18
37778;BME280;23615;51.506;7.678;2023-03-03T04:47:36;100760.94;;;1.39;98.04
37778;BME280;23615;51.506;7.678;2023-03-03T04:50:01;100766.03;;;1.41;98.13
37778;BME280;23615;51.506;7.678;2023-03-03T04:52:27;100759.22;;;1.48;98.07
37778;BME280;23615;51.506;7.678;2023-03-03T04:54:52;100770.56;;;1.48;97.76
37778;BME280;23615;51.506;7.678;2023-03-03T04:57:17;100764.47;;;1.48;97.66
37778;BME280;23615;51.506;7.678;2023-03-03T04:59:42;100762.41;;;1.52;98.04
37778;BME280;23615;51.506;7.678;2023-03-03T05:02:08;100759.63;;;1.53;98.01
37778;BME280;23615;51.506;7.678;2023-03-03T05:04:33;100765.84;;;1.52;97.90
37778;BME280;23615;51.506;7.678;2023-03-03T05:06:59;100759.47;;;1.55;97.64
37778;BME280;23615;51.506;7.678;2023-03-03T05:09:24;100770.50;;;1.58;97.60
37778;BME280;23615;51.506;7.678;2023-03-03T05:11:50;100775.00;;;1.48;97.78
37778;BME280;23615;51.506;7.678;2023-03-03T05:14:15;100770.28;;;1.52;97.72
37778;BME280;23615;51.506;7.678;2023-03-03T05:16:41;100771.81;;;1.54;97.73
37778;BME280;23615;51.506;7.678;2023-03-03T05:19:07;100763.50;;;1.49;97.42
37778;BME280;23615;51.506;7.678;2023-03-03T05:21:32;100762.31;;;1.43;97.77
37778;BME280;23615;51.506;7.678;2023-03-03T05:24:00;100765.84;;;1.52;97.84
37778;BME280;23615;51.506;7.678;2023-03-03T05:26:26;100769.16;;;1.54;97.62
37778;BME280;23615;51.506;7.678;2023-03-03T05:28:51;100773.56;;;1.63;97.33
37778;BME280;23615;51.506;7.678;2023-03-03T05:31:16;100777.88;;;1.55;97.34
37778;BME280;23615;51.506;7.678;2023-03-03T05:33:42;100764.06;;;1.53;97.41
37778;BME280;23615;51.506;7.678;2023-03-03T05:36:07;100764.06;;;1.53;97.95
37778;BME280;23615;51.506;7.678;2023-03-03T05:38:32;100766.28;;;1.47;97.67
37778;BME280;23615;51.506;7.678;2023-03-03T05:40:57;100763.66;;;1.47;97.58
37778;BME280;23615;51.506;7.678;2023-03-03T05:43:23;100764.94;;;1.43;97.86
37778;BME280;23615;51.506;7.678;2023-03-03T05:45:57;100768.66;;;1.41;98.11
37778;BME280;23615;51.506;7.678;2023-03-03T05:48:23;100770.88;;;1.45;98.10
37778;BME280;23615;51.506;7.678;2023-03-03T05:50:48;100777.38;;;1.41;97.60
37778;BME280;23615;51.506;7.678;2023-03-03T05:53:13;100773.25;;;1.39;98.02
37778;BME280;23615;51.506;7.678;2023-03-03T05:55:39;100763.56;;;1.39;98.26
37778;BME280;23615;51.506;7.678;2023-03-03T05:58:04;100761.06;;;1.38;97.85
37778;BME280;23615;51.506;7.678;2023-03-03T06:00:30;100769.88;;;1.46;97.79
37778;BME280;23615;51.506;7.678;2023-03-03T06:02:55;100781.22;;;1.47;97.61
37778;BME280;23615;51.506;7.678;2023-03-03T06:05:20;100782.88;;;1.48;97.12
37778;BME280;23615;51.506;7.678;2023-03-03T06:07:45;100790.81;;;1.38;97.20
37778;BME280;23615;51.506;7.678;2023-03-03T06:10:11;100787.22;;;1.39;97.53
37778;BME280;23615;51.506;7.678;2023-03-03T06:12:36;100793.25;;;1.49;97.42
37778;BME280;23615;51.506;7.678;2023-03-03T06:15:04;100794.00;;;1.42;97.26
37778;BME280;23615;51.506;7.678;2023-03-03T06:17:30;100794.13;;;1.40;98.08
37778;BME280;23615;51.506;7.678;2023-03-03T06:19:55;100790.09;;;1.46;97.73
37778;BME280;23615;51.506;7.678;2023-03-03T06:22:20;100800.59;;;1.46;97.53
37778;BME280;23615;51.506;7.678;2023-03-03T06:24:46;100800.59;;;1.46;97.55
37778;BME280;23615;51.506;7.678;2023-03-03T06:27:11;100803.91;;;1.48;98.04
37778;BME280;23615;51.506;7.678;2023-03-03T06:29:37;100804.59;;;1.50;97.75
37778;BME280;23615;51.506;7.678;2023-03-03T06:32:02;100809.19;;;1.48;97.32
37778;BME280;23615;51.506;7.678;2023-03-03T06:34:27;100814.44;;;1.48;97.29
37778;BME280;23615;51.506;7.678;2023-03-03T06:36:53;100823.00;;;1.50;97.48
37778;BME280;23615;51.506;7.678;2023-03-03T06:39:18;100820.66;;;1.47;97.41
37778;BME280;23615;51.506;7.678;2023-03-03T06:41:43;100815.72;;;1.44;97.38
37778;BME280;23615;51.506;7.678;2023-03-03T06:44:09;100820.97;;;1.44;97.37
37778;BME280;23615;51.506;7.678;2023-03-03T06:46:36;100819.69;;;1.48;97.38
37778;BME280;23615;51.506;7.678;2023-03-03T06:49:01;100821.22;;;1.50;97.20
37778;BME280;23615;51.506;7.678;2023-03-03T06:51:31;100832.84;;;1.48;97.17
37778;BME280;23615;51.506;7.678;2023-03-03T06:53:59;100828.72;;;1.45;97.52
37778;BME280;23615;51.506;7.678;2023-03-03T06:56:26;100827.88;;;1.45;97.53
37778;BME280;23615;51.506;7.678;2023-03-03T06:58:56;100825.91;;;1.47;97.41
37778;BME280;23615;51.506;7.678;2023-03-03T07:01:22;100827.59;;;1.48;97.26
37778;BME280;23615;51.506;7.678;2023-03-03T07:03:47;100827.44;;;1.49;97.23
37778;BME280;23615;51.506;7.678;2023-03-03T07:06:20;100826.47;;;1.50;97.06
37778;BME280;23615;51.506;7.678;2023-03-03T07:08:46;100834.59;;;1.57;97.25
37778;BME280;23615;51.506;7.678;2023-03-03T07:11:15;100838.06;;;1.58;97.09
37778;BME280;23615;51.506;7.678;2023-03-03T07:13:46;100835.00;;;1.62;97.41
37778;BME280;23615;51.506;7.678;2023-03-03T07:16:12;100838.38;;;1.55;96.92
37778;BME280;23615;51.506;7.678;2023-03-03T07:18:51;100844.09;;;1.68;97.13
37778;BME280;23615;51.506;7.678;2023-03-03T07:21:20;100837.53;;;1.81;96.93
37778;BME280;23615;51.506;7.678;2023-03-03T07:23:51;100839.34;;;1.81;96.14
37778;BME280;23615;51.506;7.678;2023-03-03T07:26:24;100847.69;;;1.67;96.28
37778;BME280;23615;51.506;7.678;2023-03-03T07:29:02;100851.84;;;1.69;96.22
37778;BME280;23615;51.506;7.678;2023-03-03T07:31:39;100856.41;;;1.67;96.40
37778;BME280;23615;51.506;7.678;2023-03-03T07:37:36;100860.75;;;1.59;97.14
37778;BME280;23615;51.506;7.678;2023-03-03T07:43:11;100862.41;;;1.60;97.36
37778;BME280;23615;51.506;7.678;2023-03-03T07:45:42;100868.59;;;1.68;96.99
37778;BME280;23615;51.506;7.678;2023-03-03T07:48:16;100871.34;;;1.76;96.61
37778;BME280;23615;51.506;7.678;2023-03-03T07:50:44;100868.47;;;1.70;96.10
37778;BME280;23615;51.506;7.678;2023-03-03T07:53:28;100878.16;;;1.69;96.21
37778;BME280;23615;51.506;7.678;2023-03-03T07:55:53;100882.03;;;1.65;96.43
37778;BME280;23615;51.506;7.678;2023-03-03T07:58:22;100882.72;;;1.67;96.09
37778;BME280;23615;51.506;7.678;2023-03-03T08:14:13;100895.56;;;1.80;95.41
37778;BME280;23615;51.506;7.678;2023-03-03T08:20:10;100894.00;;;1.87;95.41
37778;BME280;23615;51.506;7.678;2023-03-03T08:22:52;100905.06;;;1.91;95.17
37778;BME280;23615;51.506;7.678;2023-03-03T08:25:17;100896.75;;;1.85;95.08
37778;BME280;23615;51.506;7.678;2023-03-03T08:27:42;100900.09;;;1.87;94.88
37778;BME280;23615;51.506;7.678;2023-03-03T08:30:08;100909.41;;;1.82;94.68
37778;BME280;23615;51.506;7.678;2023-03-03T08:32:34;100904.41;;;1.79;95.48
37778;BME280;23615;51.506;7.678;2023-03-03T08:34:59;100903.31;;;1.81;95.47
37778;BME280;23615;51.506;7.678;2023-03-03T08:37:24;100909.09;;;1.85;95.47
37778;BME280;23615;51.506;7.678;2023-03-03T08:39:50;100915.59;;;1.91;95.06
37778;BME280;23615;51.506;7.678;2023-03-03T08:42:15;100922.25;;;1.85;94.70
37778;BME280;23615;51.506;7.678;2023-03-03T08:44:40;100917.78;;;1.95;94.98
37778;BME280;23615;51.506;7.678;2023-03-03T08:47:05;100911.16;;;1.91;94.52
37778;BME280;23615;51.506;7.678;2023-03-03T08:49:31;100919.06;;;1.91;95.05
37778;BME280;23615;51.506;7.678;2023-03-03T08:51:56;100923.72;;;1.97;94.90
37778;BME280;23615;51.506;7.678;2023-03-03T08:54:22;100921.38;;;1.94;94.95
37778;BME280;23615;51.506;7.678;2023-03-03T08:56:47;100928.97;;;1.97;94.67
37778;BME280;23615;51.506;7.678;2023-03-03T08:59:12;100929.84;;;1.88;95.11
37778;BME280;23615;51.506;7.678;2023-03-03T09:01:37;100931.06;;;1.94;94.83
37778;BME280;23615;51.506;7.678;2023-03-03T09:04:03;100919.47;;;1.86;94.91
37778;BME280;23615;51.506;7.678;2023-03-03T09:06:28;100929.56;;;1.91;95.01
37778;BME280;23615;51.506;7.678;2023-03-03T09:08:54;100923.88;;;1.96;94.94
37778;BME280;23615;51.506;7.678;2023-03-03T09:11:24;100930.50;;;2.00;95.12
37778;BME280;23615;51.506;7.678;2023-03-03T09:13:53;100931.94;;;2.12;94.51
37778;BME280;23615;51.506;7.678;2023-03-03T09:16:23;100928.16;;;2.24;93.90
37778;BME280;23615;51.506;7.678;2023-03-03T09:18:48;100928.75;;;2.18;94.07
37778;BME280;23615;51.506;7.678;2023-03-03T09:21:21;100932.63;;;2.14;94.08
37778;BME280;23615;51.506;7.678;2023-03-03T09:36:46;100933.22;;;2.35;93.00
37778;BME280;23615;51.506;7.678;2023-03-03T09:39:18;100940.28;;;2.35;93.30
37778;BME280;23615;51.506;7.678;2023-03-03T09:44:29;100952.09;;;2.48;93.17
37778;BME280;23615;51.506;7.678;2023-03-03T09:53:18;100952.56;;;2.44;92.38
37778;BME280;23615;51.506;7.678;2023-03-03T09:56:18;100957.28;;;2.40;92.50
37778;BME280;23615;51.506;7.678;2023-03-03T09:58:56;100954.88;;;2.47;92.68
37778;BME280;23615;51.506;7.678;2023-03-03T10:15:02;100956.97;;;2.71;92.45
37778;BME280;23615;51.506;7.678;2023-03-03T10:18:01;100961.63;;;2.77;91.97
37778;BME280;23615;51.506;7.678;2023-03-03T10:20:43;100962.09;;;2.90;92.14
37778;BME280;23615;51.506;7.678;2023-03-03T10:23:18;100971.66;;;2.91;91.55
37778;BME280;23615;51.506;7.678;2023-03-03T10:32:08;100976.59;;;2.94;90.94
37778;BME280;23615;51.506;7.678;2023-03-03T10:37:23;100980.75;;;3.14;90.03
37778;BME280;23615;51.506;7.678;2023-03-03T10:40:03;100974.78;;;3.12;89.85
37778;BME280;23615;51.506;7.678;2023-03-03T10:45:30;100985.25;;;3.22;90.15
37778;BME280;23615;51.506;7.678;2023-03-03T10:48:18;100979.91;;;3.31;89.27
37778;BME280;23615;51.506;7.678;2023-03-03T10:53:36;100974.25;;;3.26;88.36
37778;BME280;23615;51.506;7.678;2023-03-03T10:56:34;100979.59;;;3.34;88.46
37778;BME280;23615;51.506;7.678;2023-03-03T10:59:12;100976.56;;;3.29;88.70
37778;BME280;23615;51.506;7.678;2023-03-03T11:01:57;100970.78;;;3.26;88.51
37778;BME280;23615;51.506;7.678;2023-03-03T11:04:54;100970.03;;;3.33;88.80
37778;BME280;23615;51.506;7.678;2023-03-03T11:07:42;100973.94;;;3.29;89.08
37778;BME280;23615;51.506;7.678;2023-03-03T11:10:43;100974.72;;;3.22;88.51
37778;BME280;23615;51.506;7.678;2023-03-03T11:13:19;100970.13;;;3.24;88.56
37778;BME280;23615;51.506;7.678;2023-03-03T11:18:44;100979.06;;;3.31;88.90
37778;BME280;23615;51.506;7.678;2023-03-03T11:21:34;100977.50;;;3.03;90.12
37778;BME280;23615;51.506;7.678;2023-03-03T11:24:31;100978.31;;;3.21;89.58
37778;BME280;23615;51.506;7.678;2023-03-03T11:27:09;100973.72;;;3.23;89.83
37778;BME280;23615;51.506;7.678;2023-03-03T11:35:13;100975.56;;;3.48;90.23
37778;BME280;23615;51.506;7.678;2023-03-03T11:40:19;100966.53;;;3.51;89.58
37778;BME280;23615;51.506;7.678;2023-03-03T11:42:59;100967.41;;;3.59;89.96
37778;BME280;23615;51.506;7.678;2023-03-03T11:45:44;100972.22;;;3.64;89.31
37778;BME280;23615;51.506;7.678;2023-03-03T11:48:33;100958.31;;;3.54;88.42
37778;BME280;23615;51.506;7.678;2023-03-03T11:53:44;100947.56;;;3.55;88.75
37778;BME280;23615;51.506;7.678;2023-03-03T11:56:28;100950.75;;;3.59;88.07
37778;BME280;23615;51.506;7.678;2023-03-03T11:59:08;100951.13;;;3.64;89.12
37778;BME280;23615;51.506;7.678;2023-03-03T12:04:14;100953.47;;;3.75;88.33
37778;BME280;23615;51.506;7.678;2023-03-03T12:12:21;100940.44;;;3.73;88.31
37778;BME280;23615;51.506;7.678;2023-03-03T12:25:48;100940.44;;;3.73;87.62
37778;BME280;23615;51.506;7.678;2023-03-03T12:28:21;100929.53;;;3.68;88.89
37778;BME280;23615;51.506;7.678;2023-03-03T12:31:04;100936.66;;;3.76;89.19
37778;BME280;23615;51.506;7.678;2023-03-03T12:34:37;100934.06;;;3.84;88.45
37778;BME280;23615;51.506;7.678;2023-03-03T12:36:53;100929.63;;;3.93;87.92
37778;BME280;23615;51.506;7.678;2023-03-03T12:39:51;100929.31;;;3.88;87.27
37778;BME280;23615;51.506;7.678;2023-03-03T12:42:24;100923.88;;;3.89;87.10
37778;BME280;23615;51.506;7.678;2023-03-03T12:45:17;100933.22;;;3.84;87.35
37778;BME280;23615;51.506;7.678;2023-03-03T12:47:53;100934.81;;;4.02;86.57
37778;BME280;23615;51.506;7.678;2023-03-03T12:50:29;100926.06;;;4.02;86.37
37778;BME280;23615;51.506;7.678;2023-03-03T12:53:23;100916.69;;;4.07;85.98
37778;BME280;23615;51.506;7.678;2023-03-03T12:55:52;100923.78;;;4.07;86.07
37778;BME280;23615;51.506;7.678;2023-03-03T12:58:46;100928.94;;;4.17;86.05
37778;BME280;23615;51.506;7.678;2023-03-03T13:01:28;100922.00;;;4.16;86.68
37778;BME280;23615;51.506;7.678;2023-03-03T13:07:00;100920.66;;;4.11;86.18
37778;BME280;23615;51.506;7.678;2023-03-03T13:17:48;100919.38;;;4.24;85.80
37778;BME280;23615;51.506;7.678;2023-03-03T13:22:58;100920.72;;;4.28;85.98
37778;BME280;23615;51.506;7.678;2023-03-03T13:28:25;100917.13;;;4.45;85.85
37778;BME280;23615;51.506;7.678;2023-03-03T13:31:00;100917.91;;;4.29;84.92
37778;BME280;23615;51.506;7.678;2023-03-03T13:33:29;100913.53;;;4.54;84.70
37778;BME280;23615;51.506;7.678;2023-03-03T13:35:57;100911.34;;;4.49;84.14
37778;BME280;23615;51.506;7.678;2023-03-03T13:38:30;100918.53;;;4.23;84.95
37778;BME280;23615;51.506;7.678;2023-03-03T13:43:56;100910.81;;;4.38;84.82
37778;BME280;23615;51.506;7.678;2023-03-03T13:52:01;100907.19;;;4.47;85.57
37778;BME280;23615;51.506;7.678;2023-03-03T13:57:18;100907.91;;;4.65;84.90
37778;BME280;23615;51.506;7.678;2023-03-03T14:08:04;100890.25;;;4.90;83.47
37778;BME280;23615;51.506;7.678;2023-03-03T14:10:35;100898.81;;;4.68;83.30
37778;BME280;23615;51.506;7.678;2023-03-03T14:13:28;100892.53;;;4.53;84.01
37778;BME280;23615;51.506;7.678;2023-03-03T14:16:20;100891.88;;;4.75;82.98
37778;BME280;23615;51.506;7.678;2023-03-03T14:19:01;100892.06;;;4.73;82.67
37778;BME280;23615;51.506;7.678;2023-03-03T14:21:33;100883.78;;;4.84;81.98
37778;BME280;23615;51.506;7.678;2023-03-03T14:24:15;100885.13;;;4.64;82.90
37778;BME280;23615;51.506;7.678;2023-03-03T14:26:53;100893.22;;;4.63;83.02
37778;BME280;23615;51.506;7.678;2023-03-03T14:31:50;100876.53;;;4.62;83.27
37778;BME280;23615;51.506;7.678;2023-03-03T14:36:48;100878.50;;;4.76;83.41
37778;BME280;23615;51.506;7.678;2023-03-03T14:39:38;100877.69;;;4.84;83.39
37778;BME280;23615;51.506;7.678;2023-03-03T14:42:29;100864.44;;;4.92;82.91
37778;BME280;23615;51.506;7.678;2023-03-03T14:44:55;100873.72;;;4.96;83.16
37778;BME280;23615;51.506;7.678;2023-03-03T14:47:27;100874.53;;;4.97;82.91
37778;BME280;23615;51.506;7.678;2023-03-03T14:49:54;100873.56;;;4.98;83.10
37778;BME280;23615;51.506;7.678;2023-03-03T14:52:23;100864.28;;;5.02;83.06
37778;BME280;23615;51.506;7.678;2023-03-03T14:54:55;100865.75;;;5.12;82.77
37778;BME280;23615;51.506;7.678;2023-03-03T14:57:37;100866.25;;;5.24;81.52
37778;BME280;23615;51.506;7.678;2023-03-03T15:02:43;100863.13;;;5.04;80.86
37778;BME280;23615;51.506;7.678;2023-03-03T15:07:56;100856.00;;;5.13;80.97
37778;BME280;23615;51.506;7.678;2023-03-03T15:10:33;100856.34;;;5.02;81.42
37778;BME280;23615;51.506;7.678;2023-03-03T15:18:24;100854.72;;;4.68;83.28
37778;BME280;23615;51.506;7.678;2023-03-03T15:20:58;100851.75;;;4.71;83.05
37778;BME280;23615;51.506;7.678;2023-03-03T15:26:18;100853.06;;;5.08;82.39
37778;BME280;23615;51.506;7.678;2023-03-03T15:31:41;100849.75;;;5.06;82.44
37778;BME280;23615;51.506;7.678;2023-03-03T15:37:50;100841.63;;;5.23;80.94
37778;BME280;23615;51.506;7.678;2023-03-03T15:40:28;100837.47;;;5.21;81.52
37778;BME280;23615;51.506;7.678;2023-03-03T15:43:21;100840.16;;;5.13;80.66
37778;BME280;23615;51.506;7.678;2023-03-03T15:46:09;100836.13;;;5.33;80.50
37778;BME280;23615;51.506;7.678;2023-03-03T15:48:52;100840.28;;;5.36;80.57
37778;BME280;23615;51.506;7.678;2023-03-03T15:54:33;100832.66;;;5.33;81.46
37778;BME280;23615;51.506;7.678;2023-03-03T15:57:19;100823.22;;;5.38;80.90
37778;BME280;23615;51.506;7.678;2023-03-03T16:02:50;100821.41;;;5.39;79.75
37778;BME280;23615;51.506;7.678;2023-03-03T16:05:43;100823.88;;;5.40;80.11
37778;BME280;23615;51.506;7.678;2023-03-03T16:08:15;100816.94;;;5.31;81.01
37778;BME280;23615;51.506;7.678;2023-03-03T16:11:01;100832.34;;;5.19;80.47
37778;BME280;23615;51.506;7.678;2023-03-03T16:13:50;100826.28;;;5.03;80.99
37778;BME280;23615;51.506;7.678;2023-03-03T16:22:13;100829.47;;;4.82;81.94